Time;durP1;ratioP1;P1;durP2;ratioP2;P2;SDS_P1;SDS_P2;PMS_P1;PMS_P2;Temp;Humidity;BMP_temperature;BMP_pressure;BME280_temperature;BME280_humidity;BME280_pressure;Samples;Min_cycle;Max_cycle;Signal;HPM_P1;HPM_P2
2021/10/21 00:00:39;;;;;;;13.03;10.10;;;26.90;99.90;;;;;;1923333;72;21138;-81
2021/10/21 00:03:09;;;;;;;14.25;10.10;;;26.90;99.90;;;;;;1939555;72;21725;-81
2021/10/21 00:05:40;;;;;;;13.83;9.93;;;26.90;99.90;;;;;;1934738;72;21157;-81
2021/10/21 00:08:11;;;;;;;15.20;9.88;;;27.00;99.90;;;;;;1947357;72;21558;-81
2021/10/21 00:10:45;;;;;;;13.95;9.73;;;27.00;99.90;;;;;;1944334;72;21745;-81
2021/10/21 00:15:45;;;;;;;12.45;9.45;;;27.00;99.90;;;;;;1937981;71;21235;-82
2021/10/21 00:18:16;;;;;;;17.35;9.53;;;27.10;99.90;;;;;;1944997;72;21125;-81
2021/10/21 00:20:48;;;;;;;15.55;10.00;;;27.10;99.90;;;;;;1937282;72;21071;-81
2021/10/21 00:23:18;;;;;;;14.25;9.40;;;27.10;99.90;;;;;;1945892;72;21137;-81
2021/10/21 00:25:49;;;;;;;13.10;9.85;;;27.10;99.90;;;;;;1984685;71;21165;-81
2021/10/21 00:28:20;;;;;;;15.53;9.88;;;27.10;99.90;;;;;;1952422;71;21111;-81
2021/10/21 00:30:51;;;;;;;14.35;9.80;;;27.10;99.90;;;;;;1978618;71;21220;-81
2021/10/21 00:33:21;;;;;;;11.75;9.43;;;27.20;99.90;;;;;;1930117;72;21170;-81
2021/10/21 00:35:52;;;;;;;12.05;9.20;;;27.20;99.90;;;;;;1929663;72;21145;-81
2021/10/21 00:38:23;;;;;;;13.68;9.05;;;27.30;99.90;;;;;;1931349;72;21545;-77
2021/10/21 00:40:54;;;;;;;13.83;9.73;;;27.30;99.90;;;;;;1899846;73;21199;-78
2021/10/21 00:43:28;;;;;;;14.43;9.68;;;27.30;99.90;;;;;;1898646;73;21184;-77
2021/10/21 00:45:59;;;;;;;13.38;9.15;;;27.40;99.90;;;;;;1959722;71;21163;-80
2021/10/21 00:48:30;;;;;;;13.30;9.18;;;27.40;99.90;;;;;;1951456;72;21117;-80
2021/10/21 00:51:01;;;;;;;13.10;8.73;;;27.50;99.90;;;;;;1940642;71;21179;-79
2021/10/21 00:53:32;;;;;;;12.95;8.73;;;27.50;99.90;;;;;;1939572;71;21526;-79
2021/10/21 00:56:05;;;;;;;13.32;9.03;;;27.50;99.90;;;;;;1938380;71;21142;-79
2021/10/21 00:58:36;;;;;;;15.23;8.80;;;27.60;99.90;;;;;;1954210;71;21625;-79
2021/10/21 01:01:07;;;;;;;12.33;8.40;;;27.60;99.90;;;;;;1936745;72;21587;-79
2021/10/21 01:03:38;;;;;;;10.93;8.03;;;27.60;99.90;;;;;;1956768;71;21072;-79
2021/10/21 01:06:09;;;;;;;14.07;7.92;;;27.70;99.90;;;;;;1914851;73;21137;-79
2021/10/21 01:08:41;;;;;;;11.85;7.05;;;27.70;99.90;;;;;;1936654;72;21233;-80
2021/10/21 01:11:14;;;;;;;8.50;6.80;;;27.70;99.90;;;;;;1935316;72;21231;-80
2021/10/21 01:13:45;;;;;;;11.93;7.17;;;27.80;99.90;;;;;;1890851;73;21165;-79
2021/10/21 01:16:17;;;;;;;16.87;6.85;;;27.80;99.90;;;;;;1924381;73;21524;-78
2021/10/21 01:18:48;;;;;;;8.33;5.85;;;27.90;99.90;;;;;;1934735;73;21215;-79
2021/10/21 01:21:19;;;;;;;9.35;6.08;;;27.90;99.90;;;;;;1898579;73;21222;-79
2021/10/21 01:23:51;;;;;;;8.55;6.03;;;27.90;99.90;;;;;;1949100;72;21782;-79
2021/10/21 01:26:22;;;;;;;9.55;6.08;;;28.00;99.90;;;;;;1959954;71;21654;-81
2021/10/21 01:28:52;;;;;;;6.95;5.33;;;28.00;99.90;;;;;;1951313;72;21130;-80
2021/10/21 01:31:23;;;;;;;8.98;6.00;;;28.00;99.90;;;;;;1954565;71;21217;-79
2021/10/21 01:33:54;;;;;;;8.13;5.85;;;28.10;99.90;;;;;;1958685;71;21328;-79
2021/10/21 01:36:25;;;;;;;8.98;6.50;;;28.10;99.90;;;;;;1903976;73;21155;-79
2021/10/21 01:38:55;;;;;;;7.80;6.22;;;28.20;99.90;;;;;;1875684;74;21135;-80
2021/10/21 01:41:26;;;;;;;8.33;5.92;;;28.20;99.90;;;;;;1950549;71;21123;-80
2021/10/21 01:43:57;;;;;;;7.83;6.58;;;28.30;99.90;;;;;;1945168;71;21552;-80
2021/10/21 01:46:30;;;;;;;10.63;6.20;;;28.30;99.90;;;;;;1937421;72;21110;-79
2021/10/21 01:49:01;;;;;;;9.93;6.05;;;28.40;99.90;;;;;;1963385;72;21233;-79
2021/10/21 01:51:32;;;;;;;9.78;6.37;;;28.40;99.90;;;;;;1942059;72;21152;-79
2021/10/21 01:54:03;;;;;;;8.05;6.58;;;28.50;99.90;;;;;;1963024;71;21091;-79
2021/10/21 01:56:34;;;;;;;6.70;5.90;;;28.50;99.90;;;;;;1948039;71;21191;-79
2021/10/21 01:59:05;;;;;;;12.68;6.20;;;28.60;99.90;;;;;;1931954;73;21224;-80
2021/10/21 02:01:36;;;;;;;11.70;5.83;;;28.70;99.90;;;;;;1914002;74;21086;-80
2021/10/21 02:04:07;;;;;;;10.45;5.60;;;28.80;99.90;;;;;;1843173;76;21135;-80
2021/10/21 02:06:38;;;;;;;7.22;5.28;;;28.80;99.90;;;;;;1884580;73;21194;-80
2021/10/21 02:09:09;;;;;;;9.65;6.15;;;28.90;99.90;;;;;;1940011;71;21231;-79
2021/10/21 02:11:40;;;;;;;10.32;6.08;;;29.00;99.90;;;;;;1959395;71;21708;-79
2021/10/21 02:14:11;;;;;;;8.15;5.83;;;29.00;99.90;;;;;;1963690;71;21197;-79
2021/10/21 02:16:42;;;;;;;7.72;6.17;;;29.00;99.90;;;;;;1963684;71;22038;-80
2021/10/21 02:19:13;;;;;;;11.35;6.95;;;29.10;99.90;;;;;;1936326;72;21114;-79
2021/10/21 02:21:43;;;;;;;7.95;6.35;;;29.10;99.90;;;;;;1910050;73;21126;-79
2021/10/21 02:24:14;;;;;;;7.90;6.22;;;29.20;99.90;;;;;;1972026;71;21142;-79
2021/10/21 02:26:45;;;;;;;6.87;5.53;;;29.30;99.90;;;;;;1951026;72;21586;-83
2021/10/21 02:29:18;;;;;;;8.20;5.90;;;29.30;99.90;;;;;;1936538;72;21198;-82
2021/10/21 02:31:54;;;;;;;10.30;5.92;;;29.30;99.90;;;;;;1903024;73;21623;-82
2021/10/21 02:34:22;;;;;;;9.20;6.25;;;29.30;99.90;;;;;;1950041;71;21200;-81
2021/10/21 02:36:54;;;;;;;8.63;5.40;;;29.30;99.90;;;;;;1941417;71;21134;-81
2021/10/21 02:39:25;;;;;;;8.10;5.87;;;29.40;99.90;;;;;;1948093;72;21180;-83
2021/10/21 02:41:56;;;;;;;8.53;5.75;;;29.40;99.90;;;;;;1957797;71;21106;-82
2021/10/21 02:44:26;;;;;;;8.45;5.58;;;29.40;99.90;;;;;;1938175;72;21155;-78
2021/10/21 02:46:57;;;;;;;8.93;5.90;;;29.40;99.90;;;;;;1952623;72;21086;-72
2021/10/21 02:49:28;;;;;;;8.88;5.50;;;29.40;99.90;;;;;;1951130;72;21235;-73
2021/10/21 02:51:59;;;;;;;8.55;5.55;;;29.50;99.90;;;;;;1940620;72;21138;-72
2021/10/21 02:54:31;;;;;;;8.93;4.85;;;29.60;99.90;;;;;;1932857;72;21154;-72
2021/10/21 02:57:01;;;;;;;6.15;4.90;;;29.60;99.90;;;;;;1936295;72;21097;-73
2021/10/21 02:59:32;;;;;;;7.78;5.08;;;29.70;99.90;;;;;;1944979;72;21432;-72
2021/10/21 03:02:03;;;;;;;7.83;4.92;;;29.80;99.90;;;;;;1882225;74;21126;-73
2021/10/21 03:04:35;;;;;;;11.28;5.90;;;29.90;99.70;;;;;;1939615;72;21195;-73
2021/10/21 03:07:06;;;;;;;6.70;5.20;;;30.00;99.60;;;;;;1859728;74;21119;-73
2021/10/21 03:09:37;;;;;;;7.33;4.83;;;30.00;99.30;;;;;;1861186;74;21861;-73
2021/10/21 03:12:07;;;;;;;6.42;5.35;;;30.00;98.50;;;;;;1944221;72;21623;-73
2021/10/21 03:14:38;;;;;;;5.95;5.12;;;30.00;98.60;;;;;;1957013;71;21103;-73
2021/10/21 03:17:09;;;;;;;7.33;4.50;;;30.10;98.80;;;;;;1928642;73;21123;-74
2021/10/21 03:19:40;;;;;;;6.55;4.65;;;30.30;98.60;;;;;;1928151;72;21156;-74
2021/10/21 03:22:11;;;;;;;8.48;4.42;;;30.40;97.90;;;;;;1944629;71;21059;-74
2021/10/21 03:24:42;;;;;;;7.47;4.35;;;30.50;97.60;;;;;;1923274;72;21127;-74
2021/10/21 03:27:13;;;;;;;6.42;4.90;;;30.60;97.30;;;;;;1877795;74;21191;-73
2021/10/21 03:29:44;;;;;;;5.97;4.22;;;30.70;97.10;;;;;;1946963;72;21971;-73
2021/10/21 03:32:14;;;;;;;5.33;4.15;;;30.70;97.00;;;;;;1918233;72;21172;-73
2021/10/21 03:34:45;;;;;;;8.53;4.35;;;30.90;96.60;;;;;;1966702;71;21970;-75
2021/10/21 03:37:16;;;;;;;6.25;4.17;;;30.90;96.40;;;;;;1953800;71;21594;-74
2021/10/21 03:39:49;;;;;;;5.70;4.12;;;30.90;96.30;;;;;;1901571;73;21188;-74
2021/10/21 03:42:21;;;;;;;6.20;4.10;;;31.00;96.10;;;;;;1891070;74;21206;-75
2021/10/21 03:44:56;;;;;;;4.17;3.60;;;31.10;96.00;;;;;;1876509;74;21200;-75
2021/10/21 03:47:26;;;;;;;8.48;3.90;;;31.10;95.80;;;;;;1911335;73;21787;-75
2021/10/21 03:49:57;;;;;;;7.50;4.10;;;31.10;95.60;;;;;;1940463;72;21203;-75
2021/10/21 03:52:28;;;;;;;7.85;3.58;;;31.20;95.90;;;;;;1952255;72;21276;-75
2021/10/21 03:54:58;;;;;;;6.00;3.80;;;31.20;95.50;;;;;;1973801;71;21134;-73
2021/10/21 03:57:29;;;;;;;5.87;3.70;;;31.30;94.70;;;;;;1898701;73;21069;-74
2021/10/21 04:00:00;;;;;;;4.87;3.65;;;31.40;95.10;;;;;;1929040;73;21541;-75
2021/10/21 04:02:31;;;;;;;4.58;3.70;;;31.40;94.70;;;;;;1931734;71;21518;-74
2021/10/21 04:05:02;;;;;;;6.20;3.50;;;31.40;94.10;;;;;;1962175;71;21244;-74
2021/10/21 04:07:34;;;;;;;5.92;3.47;;;31.50;94.80;;;;;;1911347;74;21185;-75
2021/10/21 04:10:05;;;;;;;4.92;3.75;;;31.50;94.50;;;;;;1925457;72;21222;-75
2021/10/21 04:12:38;;;;;;;5.85;3.67;;;31.60;93.80;;;;;;1941923;72;21102;-74
2021/10/21 04:15:10;;;;;;;5.62;4.05;;;31.60;93.70;;;;;;1929916;72;21547;-74
2021/10/21 04:17:41;;;;;;;6.08;3.47;;;31.70;94.20;;;;;;1884017;73;21507;-73
2021/10/21 04:20:12;;;;;;;4.00;3.60;;;31.80;93.30;;;;;;1932851;72;21060;-73
2021/10/21 04:22:43;;;;;;;8.18;3.37;;;31.80;93.20;;;;;;1925197;73;21147;-74
2021/10/21 04:25:14;;;;;;;4.80;3.72;;;31.90;92.40;;;;;;1943870;72;21127;-74
2021/10/21 04:27:45;;;;;;;9.20;3.70;;;31.90;93.10;;;;;;1927102;72;21197;-72
2021/10/21 04:30:16;;;;;;;4.72;3.83;;;32.00;93.90;;;;;;1927682;72;21613;-72
2021/10/21 04:32:47;;;;;;;5.20;3.17;;;32.00;93.20;;;;;;1932175;71;21167;-73
2021/10/21 04:35:18;;;;;;;6.40;3.58;;;32.10;92.70;;;;;;1959992;72;21154;-73
2021/10/21 04:37:49;;;;;;;6.85;3.80;;;32.10;92.50;;;;;;1972471;72;21464;-72
2021/10/21 04:40:19;;;;;;;7.70;4.75;;;32.30;92.60;;;;;;1964765;71;21219;-73
2021/10/21 04:42:50;;;;;;;7.40;4.30;;;32.30;92.40;;;;;;1941087;72;21099;-72
2021/10/21 04:45:21;;;;;;;7.85;4.17;;;32.30;92.40;;;;;;1930061;72;21134;-72
2021/10/21 04:47:56;;;;;;;5.22;4.28;;;32.20;92.60;;;;;;1900067;73;21209;-72
2021/10/21 04:50:26;;;;;;;5.28;4.00;;;32.30;93.10;;;;;;1919023;73;21245;-72
2021/10/21 04:52:57;;;;;;;6.67;4.15;;;32.20;93.00;;;;;;1904541;73;21690;-73
2021/10/21 04:55:28;;;;;;;4.53;3.50;;;32.00;92.80;;;;;;1900366;74;21710;-74
2021/10/21 04:57:59;;;;;;;6.05;3.87;;;32.00;92.90;;;;;;1899624;74;21130;-71
2021/10/21 05:00:30;;;;;;;4.97;3.75;;;31.90;93.30;;;;;;1841731;75;21182;-73
2021/10/21 05:03:05;;;;;;;4.42;3.98;;;32.00;92.70;;;;;;1882186;74;21216;-72
2021/10/21 05:05:36;;;;;;;5.45;3.67;;;32.10;92.40;;;;;;1893191;73;21209;-73
2021/10/21 05:08:07;;;;;;;5.35;3.30;;;32.10;91.90;;;;;;1887689;73;21153;-72
2021/10/21 05:10:38;;;;;;;5.53;4.12;;;32.10;91.60;;;;;;1893162;73;21197;-72
2021/10/21 05:13:10;;;;;;;4.62;3.45;;;32.20;91.80;;;;;;1879630;74;21152;-72
2021/10/21 05:15:41;;;;;;;5.45;3.90;;;32.30;92.30;;;;;;1931429;73;21207;-72
2021/10/21 05:18:12;;;;;;;5.42;3.75;;;32.40;92.40;;;;;;1916233;73;21096;-72
2021/10/21 05:20:43;;;;;;;5.40;3.70;;;32.50;91.60;;;;;;1891407;74;21067;-73
2021/10/21 05:23:14;;;;;;;5.97;4.53;;;32.60;91.90;;;;;;1948268;71;21182;-69
2021/10/21 05:25:46;;;;;;;4.67;4.00;;;32.70;91.40;;;;;;1955745;70;21157;-73
2021/10/21 05:28:16;;;;;;;9.28;3.65;;;32.70;91.10;;;;;;1915923;72;21723;-73
2021/10/21 05:30:49;;;;;;;7.70;5.08;;;32.70;91.00;;;;;;1944922;71;21862;-74
2021/10/21 05:33:23;;;;;;;9.20;4.62;;;32.70;91.00;;;;;;1924652;72;21083;-72
2021/10/21 05:35:52;;;;;;;5.53;3.80;;;32.70;91.40;;;;;;1928956;72;21141;-72
2021/10/21 05:38:23;;;;;;;5.60;4.00;;;32.80;90.60;;;;;;1921610;72;21596;-72
2021/10/21 05:40:55;;;;;;;5.20;4.15;;;32.90;90.50;;;;;;1922097;73;21137;-72
2021/10/21 05:43:26;;;;;;;4.67;3.50;;;32.90;90.90;;;;;;1851613;75;21137;-73
2021/10/21 05:45:56;;;;;;;5.25;3.45;;;32.90;90.40;;;;;;1910097;73;21079;-73
2021/10/21 05:48:27;;;;;;;5.95;3.55;;;32.90;90.40;;;;;;1890967;72;21658;-72
2021/10/21 05:51:01;;;;;;;8.10;4.08;;;32.90;90.30;;;;;;1898997;73;21180;-72
2021/10/21 05:53:31;;;;;;;4.95;3.33;;;33.00;90.60;;;;;;1850145;76;21244;-73
2021/10/21 05:56:02;;;;;;;4.53;3.33;;;33.00;90.00;;;;;;1907953;73;21708;-74
2021/10/21 05:58:32;;;;;;;6.95;3.98;;;33.00;89.00;;;;;;1924650;72;21166;-73
2021/10/21 06:01:03;;;;;;;4.58;3.80;;;33.10;90.10;;;;;;1934122;72;21137;-73
2021/10/21 06:03:38;;;;;;;4.00;3.60;;;33.20;90.20;;;;;;1927062;72;21587;-73
2021/10/21 06:06:07;;;;;;;4.78;3.92;;;33.20;89.50;;;;;;1931207;72;21622;-72
2021/10/21 06:08:39;;;;;;;10.48;4.67;;;33.20;88.70;;;;;;1927380;72;21142;-72
2021/10/21 06:11:10;;;;;;;30.80;8.45;;;33.20;88.80;;;;;;1926779;72;21135;-73
2021/10/21 06:13:41;;;;;;;13.05;5.25;;;33.30;92.90;;;;;;1919043;71;21114;-74
2021/10/21 06:16:11;;;;;;;5.92;3.47;;;33.30;91.10;;;;;;1927356;72;21117;-73
2021/10/21 06:18:42;;;;;;;7.08;4.12;;;33.40;93.80;;;;;;1915311;73;21118;-73
2021/10/21 06:21:17;;;;;;;5.90;3.70;;;33.70;91.60;;;;;;1922721;72;21170;-74
2021/10/21 06:23:45;;;;;;;8.83;4.92;;;33.60;87.80;;;;;;1933089;72;21146;-74
2021/10/21 06:26:17;;;;;;;8.08;4.08;;;33.80;87.90;;;;;;1907617;72;21122;-73
2021/10/21 06:28:51;;;;;;;7.20;4.28;;;33.80;87.00;;;;;;1901445;72;21205;-73
2021/10/21 06:31:22;;;;;;;8.78;4.58;;;33.80;85.20;;;;;;1936364;72;21547;-72
2021/10/21 06:33:53;;;;;;;5.50;3.60;;;33.60;85.40;;;;;;1919962;72;21067;-73
2021/10/21 06:36:26;;;;;;;5.72;4.42;;;33.50;87.20;;;;;;1916002;72;21158;-73
2021/10/21 06:38:56;;;;;;;6.05;4.17;;;33.40;87.60;;;;;;1919894;71;21181;-73
2021/10/21 06:41:27;;;;;;;4.85;3.67;;;33.50;88.10;;;;;;1945082;71;21536;-73
2021/10/21 06:43:58;;;;;;;4.70;3.80;;;33.50;86.50;;;;;;1946223;71;21079;-72
2021/10/21 06:46:28;;;;;;;5.78;4.47;;;33.50;85.40;;;;;;1924662;72;21160;-72
2021/10/21 06:48:59;;;;;;;6.42;3.30;;;33.50;86.30;;;;;;1938801;71;21702;-75
2021/10/21 06:51:30;;;;;;;5.47;3.83;;;33.30;85.70;;;;;;1931136;72;21094;-74
2021/10/21 06:54:01;;;;;;;5.80;3.42;;;33.20;85.60;;;;;;1941195;71;21111;-74
2021/10/21 06:56:33;;;;;;;6.80;3.70;;;33.00;86.10;;;;;;1898857;72;21176;-73
2021/10/21 06:59:04;;;;;;;6.95;3.90;;;33.00;88.00;;;;;;1930575;72;21570;-74
2021/10/21 07:01:35;;;;;;;7.78;4.30;;;32.90;89.40;;;;;;1932460;71;21232;-74
2021/10/21 07:04:07;;;;;;;8.00;4.00;;;32.80;90.00;;;;;;1955591;72;21625;-73
2021/10/21 07:06:38;;;;;;;6.03;4.17;;;32.70;90.10;;;;;;1913679;72;21095;-75
2021/10/21 07:09:09;;;;;;;4.53;3.35;;;32.70;90.00;;;;;;1928960;72;21185;-73
2021/10/21 07:11:39;;;;;;;5.78;3.70;;;32.70;88.90;;;;;;1937407;71;21641;-73
2021/10/21 07:14:10;;;;;;;6.90;4.40;;;32.80;89.00;;;;;;1925479;71;21124;-73
2021/10/21 07:16:41;;;;;;;4.67;3.80;;;32.80;89.00;;;;;;1933784;72;21184;-73
2021/10/21 07:19:12;;;;;;;6.85;3.33;;;33.00;87.60;;;;;;1922424;72;21087;-73
2021/10/21 07:21:43;;;;;;;4.55;3.60;;;33.00;87.00;;;;;;1917725;72;21223;-73
2021/10/21 07:24:15;;;;;;;6.25;3.60;;;33.10;86.70;;;;;;1901078;72;21226;-74
2021/10/21 07:26:46;;;;;;;7.95;5.47;;;33.20;86.70;;;;;;1946316;72;21581;-73
2021/10/21 07:29:17;;;;;;;6.28;4.00;;;33.20;87.10;;;;;;1845423;75;21288;-73
2021/10/21 07:31:47;;;;;;;5.78;3.62;;;33.20;87.30;;;;;;1920892;72;21279;-74
2021/10/21 07:34:18;;;;;;;4.83;3.55;;;33.30;87.40;;;;;;1932546;72;21169;-73
2021/10/21 07:36:49;;;;;;;4.90;3.22;;;33.30;86.00;;;;;;1932191;72;21159;-74
2021/10/21 07:39:22;;;;;;;4.62;3.70;;;33.30;87.40;;;;;;1842409;75;21555;-73
2021/10/21 07:41:54;;;;;;;4.58;3.42;;;33.30;85.40;;;;;;1860718;75;21170;-75
2021/10/21 07:44:24;;;;;;;4.00;3.50;;;33.40;85.40;;;;;;1860831;75;21178;-74
2021/10/21 07:46:55;;;;;;;3.92;3.52;;;33.40;86.00;;;;;;1929753;71;21279;-74
2021/10/21 07:49:26;;;;;;;8.83;4.20;;;33.30;87.00;;;;;;1931926;72;21122;-74
2021/10/21 07:51:58;;;;;;;7.60;3.75;;;33.20;86.90;;;;;;1936406;72;21077;-74
2021/10/21 07:54:30;;;;;;;8.05;3.62;;;33.10;87.20;;;;;;1921909;73;21590;-73
2021/10/21 07:57:02;;;;;;;9.05;3.72;;;33.00;87.20;;;;;;1932205;72;21118;-74
2021/10/21 07:59:35;;;;;;;5.55;3.87;;;32.90;87.60;;;;;;1944048;71;21150;-73
2021/10/21 08:02:06;;;;;;;9.28;4.10;;;32.80;88.20;;;;;;1929308;72;21105;-73
2021/10/21 08:04:37;;;;;;;8.15;3.60;;;32.80;88.00;;;;;;1930946;72;21201;-73
2021/10/21 08:07:08;;;;;;;6.87;4.15;;;32.70;88.10;;;;;;1951084;71;21121;-73
2021/10/21 08:09:39;;;;;;;5.67;3.72;;;32.70;88.00;;;;;;1855697;75;21086;-73
2021/10/21 08:12:10;;;;;;;7.75;4.08;;;32.70;88.20;;;;;;1923790;72;21094;-73
2021/10/21 08:14:41;;;;;;;5.17;3.92;;;32.60;88.70;;;;;;1930790;71;21191;-72
2021/10/21 08:17:12;;;;;;;5.70;3.95;;;32.50;89.20;;;;;;1935940;71;21112;-72
2021/10/21 08:19:43;;;;;;;5.15;4.03;;;32.50;90.60;;;;;;1930757;72;21126;-73
2021/10/21 08:22:13;;;;;;;6.90;3.98;;;32.40;89.70;;;;;;1930199;72;21680;-72
2021/10/21 08:24:44;;;;;;;5.58;3.95;;;32.40;89.50;;;;;;1957230;71;21063;-72
2021/10/21 08:27:15;;;;;;;6.30;3.90;;;32.40;88.80;;;;;;1929722;72;21660;-72
2021/10/21 08:29:46;;;;;;;5.33;4.03;;;32.30;90.10;;;;;;1923621;72;21375;-73
2021/10/21 08:32:18;;;;;;;6.80;4.00;;;32.30;89.90;;;;;;1943531;71;21225;-72
2021/10/21 08:34:50;;;;;;;5.28;4.12;;;32.30;90.00;;;;;;1945114;71;21122;-72
2021/10/21 08:37:22;;;;;;;6.47;4.03;;;32.30;90.00;;;;;;1940208;72;21106;-73
2021/10/21 08:39:55;;;;;;;4.55;3.95;;;32.20;89.90;;;;;;1918436;72;21110;-72
2021/10/21 08:42:26;;;;;;;4.78;4.28;;;32.20;90.10;;;;;;1947650;72;21552;-73
2021/10/21 08:44:57;;;;;;;6.55;4.50;;;32.10;90.00;;;;;;1932863;72;21165;-72
2021/10/21 08:47:29;;;;;;;5.92;4.10;;;32.10;90.20;;;;;;1898196;72;21156;-73
2021/10/21 08:50:03;;;;;;;8.88;4.67;;;32.10;90.20;;;;;;1939388;72;21087;-73
2021/10/21 08:52:33;;;;;;;6.85;4.47;;;32.10;90.30;;;;;;1920024;73;21161;-73
2021/10/21 08:55:05;;;;;;;5.95;4.10;;;32.00;90.20;;;;;;1905599;72;21203;-73
2021/10/21 08:57:37;;;;;;;5.58;3.92;;;32.00;90.20;;;;;;1926077;73;21074;-72
2021/10/21 09:00:10;;;;;;;4.67;3.90;;;32.00;90.30;;;;;;1889525;72;21114;-74
2021/10/21 09:05:29;;;;;;;4.45;3.80;;;32.00;90.20;;;;;;1937367;72;21203;-73
2021/10/21 09:07:56;;;;;;;5.50;4.00;;;31.90;90.20;;;;;;1944662;72;21238;-73
2021/10/21 09:10:24;;;;;;;6.58;4.00;;;31.90;90.00;;;;;;1934558;72;21124;-74
2021/10/21 09:12:55;;;;;;;6.58;4.20;;;31.90;90.10;;;;;;1929342;71;21603;-73
2021/10/21 09:15:28;;;;;;;8.90;3.85;;;31.90;89.50;;;;;;1925665;72;21659;-73
2021/10/21 09:17:59;;;;;;;5.85;4.10;;;31.90;89.90;;;;;;1971479;72;21259;-73
2021/10/21 09:20:34;;;;;;;8.13;4.10;;;31.90;90.10;;;;;;1957600;72;21156;-73
2021/10/21 09:23:06;;;;;;;4.40;3.62;;;31.90;90.10;;;;;;1952660;72;21120;-73
2021/10/21 09:25:38;;;;;;;5.55;3.42;;;31.80;90.10;;;;;;1930125;71;21073;-72
2021/10/21 09:28:11;;;;;;;5.45;3.70;;;31.70;90.60;;;;;;1930157;72;21134;-74
2021/10/21 09:30:45;;;;;;;7.28;3.83;;;31.70;90.40;;;;;;1917704;72;21144;-72
2021/10/21 09:33:16;;;;;;;6.40;4.22;;;31.60;90.40;;;;;;1889892;73;21178;-74
2021/10/21 09:35:49;;;;;;;6.95;4.28;;;31.60;90.40;;;;;;1846000;76;21716;-73
2021/10/21 09:38:22;;;;;;;6.08;3.75;;;31.60;90.40;;;;;;1880078;74;21207;-72
2021/10/21 09:40:56;;;;;;;5.30;3.45;;;31.60;90.60;;;;;;1917175;72;21670;-73
2021/10/21 09:43:29;;;;;;;7.45;3.80;;;31.60;90.40;;;;;;1937009;72;21136;-73
2021/10/21 09:46:01;;;;;;;5.03;3.40;;;31.60;90.40;;;;;;1934913;71;21146;-73
2021/10/21 09:48:32;;;;;;;5.22;3.35;;;31.60;90.10;;;;;;1951123;72;21204;-73
2021/10/21 09:51:03;;;;;;;12.23;3.92;;;31.60;90.30;;;;;;1953132;71;21665;-73
2021/10/21 09:53:34;;;;;;;6.40;4.08;;;31.60;90.10;;;;;;1939942;72;21231;-72
2021/10/21 09:56:08;;;;;;;8.88;4.37;;;31.60;90.00;;;;;;1931569;73;21262;-72
2021/10/21 09:58:41;;;;;;;8.75;4.95;;;31.60;90.30;;;;;;1915829;72;21212;-72
2021/10/21 10:01:12;;;;;;;7.40;4.42;;;31.60;90.20;;;;;;1865328;74;21159;-72
2021/10/21 10:03:44;;;;;;;6.55;4.25;;;31.60;90.40;;;;;;1938835;71;22257;-71
2021/10/21 10:06:17;;;;;;;8.70;4.58;;;31.60;90.50;;;;;;1974523;71;21083;-73
2021/10/21 10:08:48;;;;;;;6.58;4.20;;;31.60;90.60;;;;;;1925373;72;21104;-73
2021/10/21 10:11:19;;;;;;;6.05;4.05;;;31.60;90.70;;;;;;1958491;71;21248;-73
2021/10/21 10:13:53;;;;;;;5.53;4.40;;;31.60;90.70;;;;;;1927346;71;21738;-73
2021/10/21 10:16:24;;;;;;;6.47;4.05;;;31.50;90.80;;;;;;1945905;71;21236;-72
2021/10/21 10:18:56;;;;;;;9.48;4.28;;;31.50;90.80;;;;;;1943393;72;21645;-73
2021/10/21 10:21:32;;;;;;;4.62;3.83;;;31.50;90.80;;;;;;1941912;72;21539;-73
2021/10/21 10:24:03;;;;;;;7.65;4.33;;;31.50;90.90;;;;;;1940032;71;21149;-75
2021/10/21 10:26:36;;;;;;;9.73;4.42;;;31.50;91.00;;;;;;1942959;71;21629;-74
2021/10/21 10:29:08;;;;;;;6.35;4.22;;;31.40;91.20;;;;;;1903205;74;21172;-73
2021/10/21 10:31:41;;;;;;;8.23;4.22;;;31.40;91.40;;;;;;1909696;73;21277;-75
2021/10/21 10:34:15;;;;;;;10.63;4.70;;;31.40;91.50;;;;;;1937887;72;21125;-74
2021/10/21 10:36:46;;;;;;;10.53;4.65;;;31.30;91.60;;;;;;1927647;72;21221;-73
2021/10/21 10:39:19;;;;;;;8.15;4.55;;;31.30;91.70;;;;;;1921417;72;21239;-73
2021/10/21 10:41:55;;;;;;;8.23;5.25;;;31.30;91.90;;;;;;1946576;71;21180;-75
2021/10/21 10:44:26;;;;;;;9.28;5.55;;;31.30;92.00;;;;;;1909531;71;21125;-75
2021/10/21 10:46:57;;;;;;;10.25;5.28;;;31.30;92.20;;;;;;1931881;73;21500;-73
2021/10/21 10:49:31;;;;;;;7.00;4.70;;;31.20;92.40;;;;;;1921263;71;21156;-73
2021/10/21 10:52:02;;;;;;;10.53;5.33;;;31.20;92.70;;;;;;1923204;73;21613;-73
2021/10/21 10:54:35;;;;;;;12.30;5.12;;;31.20;92.70;;;;;;1918188;71;21200;-74
2021/10/21 10:57:08;;;;;;;8.73;4.95;;;31.10;92.90;;;;;;1930973;72;21188;-75
2021/10/21 10:59:38;;;;;;;9.23;5.60;;;31.10;93.00;;;;;;1931287;71;21126;-74
2021/10/21 11:02:12;;;;;;;8.28;5.33;;;31.10;93.20;;;;;;1939946;72;21163;-73
2021/10/21 11:04:48;;;;;;;9.98;5.20;;;31.10;93.40;;;;;;1939848;73;21135;-75
2021/10/21 11:07:20;;;;;;;8.03;5.55;;;31.00;93.30;;;;;;1937628;72;21150;-74
2021/10/21 11:09:53;;;;;;;9.35;5.55;;;31.00;93.60;;;;;;1897633;74;21211;-74
2021/10/21 11:12:26;;;;;;;9.15;5.58;;;31.00;93.70;;;;;;1929213;72;21104;-75
2021/10/21 11:14:57;;;;;;;8.18;4.95;;;30.90;93.80;;;;;;1930419;72;21137;-75
2021/10/21 11:17:30;;;;;;;11.35;5.97;;;30.90;93.90;;;;;;1913657;72;21127;-75
2021/10/21 11:20:01;;;;;;;9.93;6.33;;;30.90;94.00;;;;;;1851508;75;21148;-74
2021/10/21 11:22:34;;;;;;;10.53;6.20;;;30.90;94.10;;;;;;1913444;73;21553;-74
2021/10/21 11:25:08;;;;;;;8.18;5.25;;;30.80;94.20;;;;;;1919716;72;21057;-75
2021/10/21 11:27:41;;;;;;;8.55;6.20;;;30.80;94.30;;;;;;1919649;74;21118;-74
2021/10/21 11:30:13;;;;;;;8.38;5.87;;;30.80;94.50;;;;;;1918053;72;21102;-74
2021/10/21 11:32:46;;;;;;;10.53;6.03;;;30.80;94.50;;;;;;1933200;72;21428;-75
2021/10/21 11:35:19;;;;;;;7.70;5.45;;;30.70;94.50;;;;;;1953530;72;21078;-73
2021/10/21 11:37:53;;;;;;;9.73;6.25;;;30.70;94.60;;;;;;1932604;72;21226;-73
2021/10/21 11:40:26;;;;;;;8.78;5.80;;;30.70;94.70;;;;;;1926323;71;21146;-75
2021/10/21 11:43:00;;;;;;;10.60;6.33;;;30.70;94.70;;;;;;1929593;72;21217;-75
2021/10/21 11:45:34;;;;;;;8.75;6.00;;;30.70;94.80;;;;;;1926244;72;21220;-75
2021/10/21 11:48:08;;;;;;;11.25;7.08;;;30.60;94.80;;;;;;1947259;72;21230;-75
2021/10/21 11:50:41;;;;;;;12.30;6.20;;;30.70;94.80;;;;;;1932525;73;21616;-74
2021/10/21 11:53:14;;;;;;;10.30;6.45;;;30.60;94.80;;;;;;1914518;72;21174;-74
2021/10/21 11:55:47;;;;;;;11.38;7.12;;;30.60;95.10;;;;;;1921425;72;21120;-75
2021/10/21 11:58:26;;;;;;;9.55;6.90;;;30.60;95.10;;;;;;1923754;72;21164;-75
2021/10/21 12:00:56;;;;;;;9.73;7.37;;;30.60;95.10;;;;;;1933704;72;21159;-75
2021/10/21 12:03:31;;;;;;;12.50;7.28;;;30.50;95.20;;;;;;1943778;72;21208;-75
2021/10/21 12:06:02;;;;;;;9.95;7.37;;;30.50;95.40;;;;;;1909866;72;21609;-74
2021/10/21 12:08:35;;;;;;;10.90;7.97;;;30.50;95.30;;;;;;1920318;72;21188;-74
2021/10/21 12:11:07;;;;;;;16.85;8.88;;;30.50;95.40;;;;;;1939544;72;21157;-74
2021/10/21 12:13:39;;;;;;;14.13;8.50;;;30.60;95.70;;;;;;1930821;72;21209;-73
2021/10/21 12:16:13;;;;;;;16.20;9.20;;;30.50;96.70;;;;;;1937694;72;21248;-74
2021/10/21 12:18:45;;;;;;;12.78;9.00;;;30.50;98.60;;;;;;1932466;72;21552;-75
2021/10/21 12:21:16;;;;;;;13.62;9.83;;;30.40;98.60;;;;;;1935051;71;21157;-73
2021/10/21 12:23:48;;;;;;;14.80;8.93;;;30.40;98.20;;;;;;1945574;72;21638;-73
2021/10/21 12:26:29;;;;;;;14.68;9.15;;;30.50;99.90;;;;;;1952049;71;21135;-74
2021/10/21 12:28:55;;;;;;;14.23;9.73;;;30.50;99.90;;;;;;1950954;72;21126;-74
2021/10/21 12:31:28;;;;;;;12.30;8.48;;;30.40;99.90;;;;;;1928885;71;21214;-74
2021/10/21 12:34:02;;;;;;;17.62;8.73;;;30.50;98.80;;;;;;1928039;72;21176;-76
2021/10/21 12:36:35;;;;;;;11.78;8.93;;;30.30;96.90;;;;;;1926623;72;21931;-76
2021/10/21 12:39:10;;;;;;;11.90;8.35;;;30.40;97.50;;;;;;1928136;72;21168;-74
2021/10/21 12:41:44;;;;;;;12.70;9.28;;;30.40;98.80;;;;;;1948137;72;21585;-75
2021/10/21 12:44:17;;;;;;;12.47;8.05;;;30.20;97.20;;;;;;1932271;72;21192;-74
2021/10/21 12:46:48;;;;;;;14.45;8.43;;;30.30;95.70;;;;;;1915832;73;21075;-75
2021/10/21 12:49:21;;;;;;;11.85;8.15;;;30.20;95.70;;;;;;1922488;73;21230;-75
2021/10/21 12:51:52;;;;;;;12.65;7.40;;;30.20;96.20;;;;;;1912308;73;21149;-75
2021/10/21 12:54:25;;;;;;;14.00;7.97;;;30.30;96.20;;;;;;1943157;72;21191;-75
2021/10/21 12:56:58;;;;;;;9.25;7.35;;;30.10;96.10;;;;;;1941092;72;21587;-76
2021/10/21 12:59:32;;;;;;;11.73;7.05;;;30.00;96.20;;;;;;1912144;72;21178;-75
2021/10/21 13:02:05;;;;;;;11.10;6.67;;;30.00;96.10;;;;;;1926671;72;21602;-74
2021/10/21 13:04:39;;;;;;;11.00;7.03;;;30.10;96.10;;;;;;1928949;72;21490;-75
2021/10/21 13:07:12;;;;;;;11.22;6.90;;;30.10;96.00;;;;;;1941161;72;21140;-75
2021/10/21 13:09:44;;;;;;;8.73;6.28;;;30.00;95.90;;;;;;1948361;72;21383;-75